Saint Clairsville, Ohio
Current Conditions -  °F | °C
As of 7:53 AM on Friday 28 Nov 2014 (Local Time) from KHLG Reporting Station
Overcast Overcast  
Wind Chill: 14°   Ceiling: 4600
Heat Index: 24°   Visibility: 10mi
Dew Point: 13°   Wind: 9mph
Humidity: 62%   Direction: 300°WNW
Pressure: 30.32"   Gusts: NA
Location:  40.08°N, 80.9°W
Report Text: KHLG 281253Z 30008KT 10SM FEW027 OVC046 M04/M11 A3032 RMK AO2 SLP286 T10441106
Loading
Personal Weather Stations






























Interactive Weather Map New forecast layout! Learn more

10-Day Weather Forecast

Advertisements
Track Severe Weather on mobile